sensor_id;sensor_type;location;lat;lon;timestamp;P1;durP1;ratioP1;P2;durP2;ratioP2
52962;SDS011;38827;53.024;6.596;2024-02-21T00:02:24;13.02;;;2.85;;
52962;SDS011;38827;53.024;6.596;2024-02-21T00:04:53;14.85;;;3.35;;
52962;SDS011;38827;53.024;6.596;2024-02-21T00:07:31;16.35;;;3.55;;
52962;SDS011;38827;53.024;6.596;2024-02-21T00:09:57;18.45;;;3.45;;
52962;SDS011;38827;53.024;6.596;2024-02-21T00:12:25;11.38;;;2.85;;
52962;SDS011;38827;53.024;6.596;2024-02-21T00:15:00;15.90;;;3.10;;
52962;SDS011;38827;53.024;6.596;2024-02-21T00:17:32;20.67;;;3.85;;
52962;SDS011;38827;53.024;6.596;2024-02-21T00:20:07;9.63;;;2.78;;
52962;SDS011;38827;53.024;6.596;2024-02-21T00:22:48;18.40;;;4.38;;
52962;SDS011;38827;53.024;6.596;2024-02-21T00:25:26;14.95;;;2.83;;
52962;SDS011;38827;53.024;6.596;2024-02-21T00:27:52;14.93;;;3.10;;
52962;SDS011;38827;53.024;6.596;2024-02-21T00:33:13;12.82;;;3.45;;
52962;SDS011;38827;53.024;6.596;2024-02-21T00:35:54;17.85;;;4.20;;
52962;SDS011;38827;53.024;6.596;2024-02-21T00:38:20;17.17;;;3.63;;
52962;SDS011;38827;53.024;6.596;2024-02-21T00:40:52;17.33;;;3.08;;
52962;SDS011;38827;53.024;6.596;2024-02-21T00:43:20;17.02;;;3.55;;
52962;SDS011;38827;53.024;6.596;2024-02-21T00:45:49;20.40;;;3.53;;
52962;SDS011;38827;53.024;6.596;2024-02-21T00:48:18;19.00;;;3.33;;
52962;SDS011;38827;53.024;6.596;2024-02-21T00:50:50;18.17;;;4.10;;
52962;SDS011;38827;53.024;6.596;2024-02-21T00:53:27;18.85;;;3.60;;
52962;SDS011;38827;53.024;6.596;2024-02-21T00:55:56;19.20;;;4.22;;
52962;SDS011;38827;53.024;6.596;2024-02-21T00:58:25;14.38;;;3.97;;
52962;SDS011;38827;53.024;6.596;2024-02-21T01:00:54;13.45;;;3.58;;
52962;SDS011;38827;53.024;6.596;2024-02-21T01:03:44;18.10;;;3.90;;
52962;SDS011;38827;53.024;6.596;2024-02-21T01:06:22;21.30;;;3.45;;
52962;SDS011;38827;53.024;6.596;2024-02-21T01:08:51;25.02;;;4.68;;
52962;SDS011;38827;53.024;6.596;2024-02-21T01:11:29;23.00;;;4.03;;
52962;SDS011;38827;53.024;6.596;2024-02-21T01:16:58;18.75;;;3.90;;
52962;SDS011;38827;53.024;6.596;2024-02-21T01:19:30;17.08;;;3.50;;
52962;SDS011;38827;53.024;6.596;2024-02-21T01:21:55;22.15;;;3.90;;
52962;SDS011;38827;53.024;6.596;2024-02-21T01:24:39;17.85;;;3.70;;
52962;SDS011;38827;53.024;6.596;2024-02-21T01:27:17;14.73;;;3.72;;
52962;SDS011;38827;53.024;6.596;2024-02-21T01:30:01;13.75;;;3.72;;
52962;SDS011;38827;53.024;6.596;2024-02-21T01:32:27;17.67;;;3.88;;
52962;SDS011;38827;53.024;6.596;2024-02-21T01:49:08;17.92;;;4.28;;
52962;SDS011;38827;53.024;6.596;2024-02-21T01:51:47;17.60;;;3.85;;
52962;SDS011;38827;53.024;6.596;2024-02-21T01:54:16;18.92;;;4.57;;
52962;SDS011;38827;53.024;6.596;2024-02-21T01:57:24;18.63;;;4.47;;
52962;SDS011;38827;53.024;6.596;2024-02-21T01:59:57;20.15;;;4.93;;
52962;SDS011;38827;53.024;6.596;2024-02-21T02:02:26;26.70;;;5.10;;
52962;SDS011;38827;53.024;6.596;2024-02-21T02:07:54;19.13;;;5.15;;
52962;SDS011;38827;53.024;6.596;2024-02-21T02:10:26;19.60;;;5.15;;
52962;SDS011;38827;53.024;6.596;2024-02-21T02:12:52;21.63;;;5.32;;
52962;SDS011;38827;53.024;6.596;2024-02-21T02:15:23;26.40;;;5.57;;
52962;SDS011;38827;53.024;6.596;2024-02-21T02:17:52;25.25;;;5.32;;
52962;SDS011;38827;53.024;6.596;2024-02-21T02:20:18;26.75;;;5.40;;
52962;SDS011;38827;53.024;6.596;2024-02-21T02:22:49;20.48;;;5.45;;
52962;SDS011;38827;53.024;6.596;2024-02-21T02:25:15;20.35;;;5.63;;
52962;SDS011;38827;53.024;6.596;2024-02-21T02:27:41;23.70;;;5.68;;
52962;SDS011;38827;53.024;6.596;2024-02-21T02:30:34;27.08;;;5.95;;
52962;SDS011;38827;53.024;6.596;2024-02-21T02:33:06;19.98;;;5.50;;
52962;SDS011;38827;53.024;6.596;2024-02-21T02:35:35;21.67;;;5.43;;
52962;SDS011;38827;53.024;6.596;2024-02-21T02:38:07;21.98;;;5.18;;
52962;SDS011;38827;53.024;6.596;2024-02-21T02:40:36;21.60;;;5.20;;
52962;SDS011;38827;53.024;6.596;2024-02-21T02:43:30;19.77;;;5.20;;
52962;SDS011;38827;53.024;6.596;2024-02-21T02:46:11;21.08;;;6.03;;
52962;SDS011;38827;53.024;6.596;2024-02-21T02:48:43;20.63;;;5.65;;
52962;SDS011;38827;53.024;6.596;2024-02-21T02:51:13;19.92;;;5.60;;
52962;SDS011;38827;53.024;6.596;2024-02-21T02:53:44;24.05;;;6.18;;
52962;SDS011;38827;53.024;6.596;2024-02-21T02:56:16;18.90;;;5.70;;
52962;SDS011;38827;53.024;6.596;2024-02-21T02:58:48;20.52;;;5.82;;
52962;SDS011;38827;53.024;6.596;2024-02-21T03:01:20;25.45;;;5.93;;
52962;SDS011;38827;53.024;6.596;2024-02-21T03:03:54;22.80;;;6.30;;
52962;SDS011;38827;53.024;6.596;2024-02-21T03:09:16;25.48;;;6.40;;
52962;SDS011;38827;53.024;6.596;2024-02-21T03:11:45;27.65;;;6.40;;
52962;SDS011;38827;53.024;6.596;2024-02-21T03:14:14;26.35;;;6.47;;
52962;SDS011;38827;53.024;6.596;2024-02-21T03:16:40;24.70;;;6.40;;
52962;SDS011;38827;53.024;6.596;2024-02-21T03:19:08;23.65;;;6.75;;
52962;SDS011;38827;53.024;6.596;2024-02-21T03:21:43;28.92;;;7.38;;
52962;SDS011;38827;53.024;6.596;2024-02-21T03:24:09;25.25;;;7.18;;
52962;SDS011;38827;53.024;6.596;2024-02-21T03:26:34;22.55;;;6.30;;
52962;SDS011;38827;53.024;6.596;2024-02-21T03:29:00;28.13;;;7.72;;
52962;SDS011;38827;53.024;6.596;2024-02-21T03:31:44;26.85;;;7.22;;
52962;SDS011;38827;53.024;6.596;2024-02-21T03:34:16;27.42;;;7.38;;
52962;SDS011;38827;53.024;6.596;2024-02-21T03:36:51;30.45;;;7.35;;
52962;SDS011;38827;53.024;6.596;2024-02-21T03:42:20;30.17;;;7.45;;
52962;SDS011;38827;53.024;6.596;2024-02-21T03:44:49;30.77;;;7.15;;
52962;SDS011;38827;53.024;6.596;2024-02-21T03:47:20;28.05;;;7.70;;
52962;SDS011;38827;53.024;6.596;2024-02-21T03:49:49;27.48;;;7.90;;
52962;SDS011;38827;53.024;6.596;2024-02-21T03:52:15;31.58;;;8.23;;
52962;SDS011;38827;53.024;6.596;2024-02-21T03:57:39;31.80;;;7.90;;
52962;SDS011;38827;53.024;6.596;2024-02-21T04:00:08;29.50;;;8.23;;
52962;SDS011;38827;53.024;6.596;2024-02-21T04:02:36;26.45;;;7.18;;
52962;SDS011;38827;53.024;6.596;2024-02-21T04:05:04;28.55;;;9.20;;
52962;SDS011;38827;53.024;6.596;2024-02-21T04:10:29;30.27;;;8.25;;
52962;SDS011;38827;53.024;6.596;2024-02-21T04:15:42;30.20;;;8.55;;
52962;SDS011;38827;53.024;6.596;2024-02-21T04:18:07;26.25;;;8.40;;
52962;SDS011;38827;53.024;6.596;2024-02-21T04:20:51;28.92;;;8.13;;
52962;SDS011;38827;53.024;6.596;2024-02-21T04:23:35;26.75;;;8.85;;
52962;SDS011;38827;53.024;6.596;2024-02-21T04:26:10;28.23;;;8.85;;
52962;SDS011;38827;53.024;6.596;2024-02-21T04:28:36;25.30;;;8.45;;
52962;SDS011;38827;53.024;6.596;2024-02-21T04:31:11;26.75;;;8.63;;
52962;SDS011;38827;53.024;6.596;2024-02-21T04:33:49;28.63;;;8.25;;
52962;SDS011;38827;53.024;6.596;2024-02-21T04:36:20;29.83;;;8.40;;
52962;SDS011;38827;53.024;6.596;2024-02-21T04:38:49;34.40;;;9.30;;
52962;SDS011;38827;53.024;6.596;2024-02-21T04:41:18;35.15;;;9.18;;
52962;SDS011;38827;53.024;6.596;2024-02-21T04:43:45;27.00;;;8.90;;
52962;SDS011;38827;53.024;6.596;2024-02-21T04:48:37;34.53;;;9.25;;
52962;SDS011;38827;53.024;6.596;2024-02-21T04:51:06;33.08;;;8.63;;
52962;SDS011;38827;53.024;6.596;2024-02-21T04:53:47;28.60;;;7.85;;
52962;SDS011;38827;53.024;6.596;2024-02-21T04:56:25;27.00;;;8.35;;
52962;SDS011;38827;53.024;6.596;2024-02-21T04:58:50;33.63;;;8.93;;
52962;SDS011;38827;53.024;6.596;2024-02-21T05:01:16;27.73;;;8.00;;
52962;SDS011;38827;53.024;6.596;2024-02-21T05:06:39;25.13;;;7.55;;
52962;SDS011;38827;53.024;6.596;2024-02-21T05:09:24;31.95;;;8.88;;
52962;SDS011;38827;53.024;6.596;2024-02-21T05:12:05;34.45;;;9.35;;
52962;SDS011;38827;53.024;6.596;2024-02-21T05:14:36;29.35;;;9.15;;
52962;SDS011;38827;53.024;6.596;2024-02-21T05:17:05;35.08;;;9.00;;
52962;SDS011;38827;53.024;6.596;2024-02-21T05:19:31;30.80;;;8.57;;
52962;SDS011;38827;53.024;6.596;2024-02-21T05:21:58;33.92;;;9.30;;
52962;SDS011;38827;53.024;6.596;2024-02-21T05:24:24;34.75;;;8.80;;
52962;SDS011;38827;53.024;6.596;2024-02-21T05:27:08;32.38;;;9.50;;
52962;SDS011;38827;53.024;6.596;2024-02-21T05:29:37;31.77;;;9.63;;
52962;SDS011;38827;53.024;6.596;2024-02-21T05:32:07;36.92;;;9.32;;
52962;SDS011;38827;53.024;6.596;2024-02-21T05:34:36;34.97;;;9.27;;
52962;SDS011;38827;53.024;6.596;2024-02-21T05:37:08;36.72;;;10.18;;
52962;SDS011;38827;53.024;6.596;2024-02-21T05:39:41;33.65;;;9.88;;
52962;SDS011;38827;53.024;6.596;2024-02-21T05:42:13;41.17;;;10.65;;
52962;SDS011;38827;53.024;6.596;2024-02-21T05:45:08;35.00;;;10.82;;
52962;SDS011;38827;53.024;6.596;2024-02-21T05:47:43;34.88;;;11.07;;
52962;SDS011;38827;53.024;6.596;2024-02-21T05:50:09;39.08;;;10.90;;
52962;SDS011;38827;53.024;6.596;2024-02-21T05:52:35;39.73;;;10.33;;
52962;SDS011;38827;53.024;6.596;2024-02-21T05:55:10;44.80;;;10.57;;
52962;SDS011;38827;53.024;6.596;2024-02-21T05:57:45;39.35;;;10.70;;
52962;SDS011;38827;53.024;6.596;2024-02-21T06:00:22;39.33;;;10.95;;
52962;SDS011;38827;53.024;6.596;2024-02-21T06:02:57;29.98;;;9.82;;
52962;SDS011;38827;53.024;6.596;2024-02-21T06:05:23;34.28;;;10.02;;
52962;SDS011;38827;53.024;6.596;2024-02-21T06:07:49;35.85;;;10.13;;
52962;SDS011;38827;53.024;6.596;2024-02-21T06:10:30;39.55;;;11.48;;
52962;SDS011;38827;53.024;6.596;2024-02-21T06:12:58;37.47;;;10.82;;
52962;SDS011;38827;53.024;6.596;2024-02-21T06:15:33;42.65;;;13.15;;
52962;SDS011;38827;53.024;6.596;2024-02-21T06:23:49;41.58;;;12.52;;
52962;SDS011;38827;53.024;6.596;2024-02-21T06:26:46;40.88;;;13.23;;
52962;SDS011;38827;53.024;6.596;2024-02-21T06:29:27;41.55;;;13.48;;
52962;SDS011;38827;53.024;6.596;2024-02-21T06:32:08;51.78;;;14.40;;
52962;SDS011;38827;53.024;6.596;2024-02-21T06:35:26;55.03;;;13.25;;
52962;SDS011;38827;53.024;6.596;2024-02-21T06:37:51;61.10;;;13.55;;
52962;SDS011;38827;53.024;6.596;2024-02-21T06:51:00;44.20;;;10.30;;
52962;SDS011;38827;53.024;6.596;2024-02-21T07:24:02;40.67;;;10.15;;
52962;SDS011;38827;53.024;6.596;2024-02-21T07:34:02;37.05;;;8.55;;
52962;SDS011;38827;53.024;6.596;2024-02-21T07:36:46;37.75;;;9.20;;
52962;SDS011;38827;53.024;6.596;2024-02-21T08:02:16;32.13;;;7.80;;
52962;SDS011;38827;53.024;6.596;2024-02-21T08:48:31;25.65;;;14.38;;
52962;SDS011;38827;53.024;6.596;2024-02-21T08:58:15;26.42;;;14.13;;
52962;SDS011;38827;53.024;6.596;2024-02-21T09:00:47;26.83;;;14.90;;
52962;SDS011;38827;53.024;6.596;2024-02-21T09:05:48;27.50;;;14.48;;
52962;SDS011;38827;53.024;6.596;2024-02-21T09:53:46;29.25;;;17.50;;
52962;SDS011;38827;53.024;6.596;2024-02-21T11:29:14;18.52;;;11.73;;
52962;SDS011;38827;53.024;6.596;2024-02-21T11:32:44;16.83;;;10.50;;
52962;SDS011;38827;53.024;6.596;2024-02-21T11:37:48;18.60;;;10.75;;
52962;SDS011;38827;53.024;6.596;2024-02-21T11:40:29;16.35;;;10.32;;
52962;SDS011;38827;53.024;6.596;2024-02-21T11:42:58;16.67;;;10.30;;
52962;SDS011;38827;53.024;6.596;2024-02-21T11:45:49;14.88;;;9.13;;
52962;SDS011;38827;53.024;6.596;2024-02-21T11:48:27;15.65;;;10.20;;
52962;SDS011;38827;53.024;6.596;2024-02-21T11:50:59;16.85;;;9.65;;
52962;SDS011;38827;53.024;6.596;2024-02-21T11:56:42;15.98;;;9.57;;
52962;SDS011;38827;53.024;6.596;2024-02-21T11:59:15;15.88;;;9.25;;
52962;SDS011;38827;53.024;6.596;2024-02-21T12:01:50;14.05;;;8.68;;
52962;SDS011;38827;53.024;6.596;2024-02-21T12:04:48;16.45;;;8.95;;
52962;SDS011;38827;53.024;6.596;2024-02-21T12:10:10;13.80;;;9.05;;
52962;SDS011;38827;53.024;6.596;2024-02-21T12:15:54;14.93;;;10.18;;
52962;SDS011;38827;53.024;6.596;2024-02-21T12:18:20;17.60;;;8.93;;
52962;SDS011;38827;53.024;6.596;2024-02-21T12:20:58;18.02;;;9.48;;
52962;SDS011;38827;53.024;6.596;2024-02-21T12:38:17;13.77;;;9.25;;
52962;SDS011;38827;53.024;6.596;2024-02-21T13:01:52;9.95;;;6.88;;
52962;SDS011;38827;53.024;6.596;2024-02-21T13:05:31;10.27;;;6.65;;
52962;SDS011;38827;53.024;6.596;2024-02-21T13:07:58;8.02;;;6.35;;
52962;SDS011;38827;53.024;6.596;2024-02-21T13:10:24;12.48;;;7.13;;
52962;SDS011;38827;53.024;6.596;2024-02-21T13:24:34;9.27;;;5.72;;
52962;SDS011;38827;53.024;6.596;2024-02-21T13:27:03;8.35;;;6.07;;
52962;SDS011;38827;53.024;6.596;2024-02-21T13:29:29;8.75;;;5.80;;
52962;SDS011;38827;53.024;6.596;2024-02-21T13:32:10;9.88;;;6.43;;
52962;SDS011;38827;53.024;6.596;2024-02-21T13:34:54;10.68;;;6.10;;
52962;SDS011;38827;53.024;6.596;2024-02-21T13:45:56;10.20;;;5.88;;
52962;SDS011;38827;53.024;6.596;2024-02-21T13:49:01;9.93;;;5.13;;
52962;SDS011;38827;53.024;6.596;2024-02-21T13:52:19;8.20;;;5.18;;
52962;SDS011;38827;53.024;6.596;2024-02-21T13:57:58;7.00;;;4.90;;
52962;SDS011;38827;53.024;6.596;2024-02-21T14:03:23;10.20;;;5.85;;
52962;SDS011;38827;53.024;6.596;2024-02-21T14:05:50;10.18;;;5.72;;
52962;SDS011;38827;53.024;6.596;2024-02-21T14:08:16;8.13;;;5.40;;
52962;SDS011;38827;53.024;6.596;2024-02-21T14:10:45;9.02;;;5.47;;
52962;SDS011;38827;53.024;6.596;2024-02-21T14:13:10;9.93;;;5.78;;
52962;SDS011;38827;53.024;6.596;2024-02-21T14:15:36;9.13;;;5.47;;
52962;SDS011;38827;53.024;6.596;2024-02-21T14:18:09;8.00;;;5.30;;
52962;SDS011;38827;53.024;6.596;2024-02-21T14:20:40;8.75;;;5.80;;
52962;SDS011;38827;53.024;6.596;2024-02-21T14:23:09;10.73;;;6.07;;
52962;SDS011;38827;53.024;6.596;2024-02-21T14:25:34;9.00;;;5.88;;
52962;SDS011;38827;53.024;6.596;2024-02-21T14:28:00;9.23;;;5.65;;
52962;SDS011;38827;53.024;6.596;2024-02-21T14:33:19;10.38;;;6.20;;
52962;SDS011;38827;53.024;6.596;2024-02-21T14:35:51;9.10;;;5.72;;
52962;SDS011;38827;53.024;6.596;2024-02-21T14:44:02;11.57;;;5.88;;
52962;SDS011;38827;53.024;6.596;2024-02-21T14:46:31;9.07;;;5.70;;
52962;SDS011;38827;53.024;6.596;2024-02-21T14:51:38;13.15;;;6.32;;
52962;SDS011;38827;53.024;6.596;2024-02-21T14:54:06;13.30;;;6.32;;
52962;SDS011;38827;53.024;6.596;2024-02-21T14:56:42;11.38;;;6.53;;
52962;SDS011;38827;53.024;6.596;2024-02-21T14:59:23;12.43;;;5.70;;
52962;SDS011;38827;53.024;6.596;2024-02-21T15:01:51;10.25;;;5.97;;
52962;SDS011;38827;53.024;6.596;2024-02-21T15:06:58;8.77;;;5.63;;
52962;SDS011;38827;53.024;6.596;2024-02-21T15:09:28;10.02;;;5.65;;
52962;SDS011;38827;53.024;6.596;2024-02-21T15:11:54;11.00;;;6.25;;
52962;SDS011;38827;53.024;6.596;2024-02-21T15:15:09;11.27;;;5.85;;
52962;SDS011;38827;53.024;6.596;2024-02-21T15:17:35;13.15;;;6.43;;
52962;SDS011;38827;53.024;6.596;2024-02-21T15:20:16;11.77;;;5.90;;
52962;SDS011;38827;53.024;6.596;2024-02-21T15:25:32;14.07;;;6.07;;
52962;SDS011;38827;53.024;6.596;2024-02-21T15:28:04;11.63;;;5.80;;
52962;SDS011;38827;53.024;6.596;2024-02-21T15:30:49;10.45;;;5.70;;
52962;SDS011;38827;53.024;6.596;2024-02-21T15:39:53;11.95;;;6.03;;
52962;SDS011;38827;53.024;6.596;2024-02-21T15:42:28;10.60;;;5.47;;
52962;SDS011;38827;53.024;6.596;2024-02-21T15:51:17;13.35;;;5.82;;
52962;SDS011;38827;53.024;6.596;2024-02-21T16:05:26;14.68;;;5.70;;
52962;SDS011;38827;53.024;6.596;2024-02-21T16:08:01;10.50;;;5.82;;
52962;SDS011;38827;53.024;6.596;2024-02-21T16:10:30;13.73;;;5.90;;
52962;SDS011;38827;53.024;6.596;2024-02-21T16:13:14;16.17;;;5.85;;
52962;SDS011;38827;53.024;6.596;2024-02-21T16:15:40;11.68;;;6.13;;
52962;SDS011;38827;53.024;6.596;2024-02-21T16:34:04;12.68;;;5.93;;
52962;SDS011;38827;53.024;6.596;2024-02-21T16:49:36;14.73;;;6.72;;
52962;SDS011;38827;53.024;6.596;2024-02-21T16:52:35;12.70;;;6.68;;
52962;SDS011;38827;53.024;6.596;2024-02-21T16:57:34;15.20;;;7.07;;
52962;SDS011;38827;53.024;6.596;2024-02-21T17:00:18;13.73;;;6.80;;
52962;SDS011;38827;53.024;6.596;2024-02-21T17:03:03;16.13;;;6.97;;
52962;SDS011;38827;53.024;6.596;2024-02-21T17:05:29;13.43;;;7.13;;
52962;SDS011;38827;53.024;6.596;2024-02-21T17:08:13;12.90;;;7.10;;
52962;SDS011;38827;53.024;6.596;2024-02-21T17:10:40;14.40;;;5.88;;
52962;SDS011;38827;53.024;6.596;2024-02-21T17:13:15;12.40;;;7.38;;
52962;SDS011;38827;53.024;6.596;2024-02-21T17:18:47;13.98;;;6.70;;
52962;SDS011;38827;53.024;6.596;2024-02-21T17:21:31;14.43;;;7.20;;
52962;SDS011;38827;53.024;6.596;2024-02-21T17:23:57;15.70;;;7.30;;
52962;SDS011;38827;53.024;6.596;2024-02-21T17:28:58;13.27;;;6.78;;
52962;SDS011;38827;53.024;6.596;2024-02-21T17:31:42;12.18;;;7.22;;
52962;SDS011;38827;53.024;6.596;2024-02-21T17:34:20;13.65;;;7.30;;
52962;SDS011;38827;53.024;6.596;2024-02-21T17:36:46;16.60;;;7.50;;
52962;SDS011;38827;53.024;6.596;2024-02-21T17:39:12;15.48;;;7.82;;
52962;SDS011;38827;53.024;6.596;2024-02-21T17:41:39;15.83;;;7.03;;
52962;SDS011;38827;53.024;6.596;2024-02-21T17:44:04;12.27;;;6.85;;
52962;SDS011;38827;53.024;6.596;2024-02-21T17:46:30;13.80;;;6.97;;
52962;SDS011;38827;53.024;6.596;2024-02-21T17:48:55;13.32;;;7.63;;
52962;SDS011;38827;53.024;6.596;2024-02-21T17:51:21;12.60;;;7.30;;
52962;SDS011;38827;53.024;6.596;2024-02-21T17:53:47;15.52;;;8.00;;
52962;SDS011;38827;53.024;6.596;2024-02-21T17:56:13;14.20;;;7.97;;
52962;SDS011;38827;53.024;6.596;2024-02-21T17:58:38;11.60;;;7.22;;
52962;SDS011;38827;53.024;6.596;2024-02-21T18:01:04;14.93;;;7.30;;
52962;SDS011;38827;53.024;6.596;2024-02-21T18:03:29;11.05;;;6.18;;
52962;SDS011;38827;53.024;6.596;2024-02-21T18:05:59;12.13;;;6.18;;
52962;SDS011;38827;53.024;6.596;2024-02-21T18:08:28;10.95;;;5.60;;
52962;SDS011;38827;53.024;6.596;2024-02-21T18:10:54;12.52;;;5.93;;
52962;SDS011;38827;53.024;6.596;2024-02-21T18:13:20;12.07;;;6.30;;
52962;SDS011;38827;53.024;6.596;2024-02-21T18:15:47;13.07;;;6.03;;
52962;SDS011;38827;53.024;6.596;2024-02-21T18:18:13;9.75;;;5.97;;
52962;SDS011;38827;53.024;6.596;2024-02-21T18:20:41;11.93;;;5.25;;
52962;SDS011;38827;53.024;6.596;2024-02-21T18:23:07;12.77;;;5.50;;
52962;SDS011;38827;53.024;6.596;2024-02-21T18:25:36;9.73;;;6.38;;
52962;SDS011;38827;53.024;6.596;2024-02-21T18:28:02;10.95;;;5.97;;
52962;SDS011;38827;53.024;6.596;2024-02-21T18:30:28;12.80;;;6.15;;
52962;SDS011;38827;53.024;6.596;2024-02-21T18:32:54;11.63;;;5.72;;
52962;SDS011;38827;53.024;6.596;2024-02-21T18:35:20;8.27;;;5.18;;
52962;SDS011;38827;53.024;6.596;2024-02-21T18:37:45;9.82;;;5.40;;
52962;SDS011;38827;53.024;6.596;2024-02-21T18:40:13;8.05;;;5.43;;
52962;SDS011;38827;53.024;6.596;2024-02-21T18:42:41;7.85;;;5.60;;
52962;SDS011;38827;53.024;6.596;2024-02-21T18:45:07;10.38;;;5.45;;
52962;SDS011;38827;53.024;6.596;2024-02-21T18:47:34;8.75;;;5.20;;
52962;SDS011;38827;53.024;6.596;2024-02-21T18:50:00;10.02;;;5.97;;
52962;SDS011;38827;53.024;6.596;2024-02-21T18:52:26;11.93;;;6.18;;
52962;SDS011;38827;53.024;6.596;2024-02-21T18:54:51;11.23;;;5.75;;
52962;SDS011;38827;53.024;6.596;2024-02-21T18:57:17;16.58;;;7.40;;
52962;SDS011;38827;53.024;6.596;2024-02-21T18:59:43;10.05;;;6.32;;
52962;SDS011;38827;53.024;6.596;2024-02-21T19:02:09;10.50;;;6.53;;
52962;SDS011;38827;53.024;6.596;2024-02-21T19:04:35;9.63;;;6.72;;
52962;SDS011;38827;53.024;6.596;2024-02-21T19:07:02;13.23;;;7.10;;
52962;SDS011;38827;53.024;6.596;2024-02-21T19:09:28;12.85;;;7.38;;
52962;SDS011;38827;53.024;6.596;2024-02-21T19:11:54;13.18;;;7.75;;
52962;SDS011;38827;53.024;6.596;2024-02-21T19:14:20;10.90;;;6.95;;
52962;SDS011;38827;53.024;6.596;2024-02-21T19:16:46;16.50;;;7.80;;
52962;SDS011;38827;53.024;6.596;2024-02-21T19:35:07;14.95;;;6.88;;
52962;SDS011;38827;53.024;6.596;2024-02-21T19:46:53;11.40;;;6.68;;
52962;SDS011;38827;53.024;6.596;2024-02-21T19:53:27;10.45;;;6.57;;
52962;SDS011;38827;53.024;6.596;2024-02-21T19:56:14;10.45;;;6.47;;
52962;SDS011;38827;53.024;6.596;2024-02-21T19:58:50;10.50;;;6.80;;
52962;SDS011;38827;53.024;6.596;2024-02-21T20:01:34;8.10;;;6.20;;
52962;SDS011;38827;53.024;6.596;2024-02-21T20:04:03;10.82;;;6.88;;
52962;SDS011;38827;53.024;6.596;2024-02-21T20:06:30;9.93;;;6.15;;
52962;SDS011;38827;53.024;6.596;2024-02-21T20:09:20;10.20;;;7.10;;
52962;SDS011;38827;53.024;6.596;2024-02-21T20:28:08;8.15;;;6.13;;
52962;SDS011;38827;53.024;6.596;2024-02-21T20:40:48;7.57;;;6.05;;
52962;SDS011;38827;53.024;6.596;2024-02-21T20:46:25;8.10;;;5.75;;
52962;SDS011;38827;53.024;6.596;2024-02-21T20:52:14;7.20;;;6.22;;
52962;SDS011;38827;53.024;6.596;2024-02-21T20:58:21;6.82;;;5.47;;
52962;SDS011;38827;53.024;6.596;2024-02-21T21:00:53;8.35;;;6.75;;
52962;SDS011;38827;53.024;6.596;2024-02-21T21:06:31;6.50;;;5.80;;
52962;SDS011;38827;53.024;6.596;2024-02-21T21:12:56;6.78;;;6.07;;
52962;SDS011;38827;53.024;6.596;2024-02-21T21:26:19;8.30;;;6.15;;
52962;SDS011;38827;53.024;6.596;2024-02-21T21:32:06;7.35;;;6.15;;
52962;SDS011;38827;53.024;6.596;2024-02-21T21:44:57;9.25;;;5.93;;
52962;SDS011;38827;53.024;6.596;2024-02-21T21:53:07;7.55;;;6.38;;
52962;SDS011;38827;53.024;6.596;2024-02-21T21:55:36;8.88;;;6.28;;
52962;SDS011;38827;53.024;6.596;2024-02-21T21:58:10;6.20;;;5.53;;
52962;SDS011;38827;53.024;6.596;2024-02-21T22:00:45;6.38;;;5.50;;
52962;SDS011;38827;53.024;6.596;2024-02-21T22:03:12;5.75;;;5.03;;
52962;SDS011;38827;53.024;6.596;2024-02-21T22:06:04;6.35;;;5.05;;
52962;SDS011;38827;53.024;6.596;2024-02-21T22:11:17;7.13;;;5.25;;
52962;SDS011;38827;53.024;6.596;2024-02-21T22:16:29;5.90;;;5.18;;
52962;SDS011;38827;53.024;6.596;2024-02-21T22:18:55;5.85;;;5.25;;
52962;SDS011;38827;53.024;6.596;2024-02-21T22:21:21;5.88;;;5.10;;
52962;SDS011;38827;53.024;6.596;2024-02-21T22:23:46;6.10;;;5.35;;
52962;SDS011;38827;53.024;6.596;2024-02-21T22:26:12;6.13;;;4.78;;
52962;SDS011;38827;53.024;6.596;2024-02-21T22:28:40;5.60;;;5.10;;
52962;SDS011;38827;53.024;6.596;2024-02-21T22:31:06;5.65;;;5.15;;
52962;SDS011;38827;53.024;6.596;2024-02-21T22:33:34;5.45;;;4.85;;
52962;SDS011;38827;53.024;6.596;2024-02-21T22:36:00;6.10;;;5.50;;
52962;SDS011;38827;53.024;6.596;2024-02-21T22:38:25;5.47;;;4.95;;
52962;SDS011;38827;53.024;6.596;2024-02-21T22:40:51;6.32;;;5.03;;
52962;SDS011;38827;53.024;6.596;2024-02-21T22:43:20;5.73;;;5.20;;
52962;SDS011;38827;53.024;6.596;2024-02-21T22:45:46;5.78;;;4.85;;
52962;SDS011;38827;53.024;6.596;2024-02-21T22:48:12;5.18;;;4.78;;
52962;SDS011;38827;53.024;6.596;2024-02-21T22:50:38;5.78;;;5.15;;
52962;SDS011;38827;53.024;6.596;2024-02-21T22:53:04;5.88;;;5.35;;
52962;SDS011;38827;53.024;6.596;2024-02-21T22:55:31;6.07;;;5.40;;
52962;SDS011;38827;53.024;6.596;2024-02-21T22:57:58;6.32;;;4.90;;
52962;SDS011;38827;53.024;6.596;2024-02-21T23:00:27;5.88;;;5.28;;
52962;SDS011;38827;53.024;6.596;2024-02-21T23:05:20;5.30;;;4.80;;
52962;SDS011;38827;53.024;6.596;2024-02-21T23:07:48;6.50;;;5.05;;
52962;SDS011;38827;53.024;6.596;2024-02-21T23:10:20;5.53;;;5.03;;
52962;SDS011;38827;53.024;6.596;2024-02-21T23:12:51;5.93;;;5.32;;
52962;SDS011;38827;53.024;6.596;2024-02-21T23:15:17;6.28;;;5.68;;
52962;SDS011;38827;53.024;6.596;2024-02-21T23:17:43;5.43;;;4.93;;
52962;SDS011;38827;53.024;6.596;2024-02-21T23:20:09;5.65;;;5.05;;
52962;SDS011;38827;53.024;6.596;2024-02-21T23:22:35;5.57;;;5.00;;
52962;SDS011;38827;53.024;6.596;2024-02-21T23:25:01;5.75;;;5.10;;
52962;SDS011;38827;53.024;6.596;2024-02-21T23:27:27;6.38;;;5.03;;
52962;SDS011;38827;53.024;6.596;2024-02-21T23:29:54;5.85;;;5.35;;
52962;SDS011;38827;53.024;6.596;2024-02-21T23:32:21;5.70;;;5.20;;
52962;SDS011;38827;53.024;6.596;2024-02-21T23:34:46;6.10;;;5.50;;
52962;SDS011;38827;53.024;6.596;2024-02-21T23:37:12;5.90;;;5.30;;
52962;SDS011;38827;53.024;6.596;2024-02-21T23:39:38;6.03;;;5.43;;
52962;SDS011;38827;53.024;6.596;2024-02-21T23:42:04;5.97;;;5.38;;
52962;SDS011;38827;53.024;6.596;2024-02-21T23:44:30;6.35;;;5.75;;
52962;SDS011;38827;53.024;6.596;2024-02-21T23:46:56;6.70;;;5.90;;
52962;SDS011;38827;53.024;6.596;2024-02-21T23:49:22;6.10;;;4.97;;
52962;SDS011;38827;53.024;6.596;2024-02-21T23:51:51;5.50;;;5.00;;
52962;SDS011;38827;53.024;6.596;2024-02-21T23:54:18;5.68;;;5.00;;
52962;SDS011;38827;53.024;6.596;2024-02-21T23:56:44;5.67;;;5.13;;
52962;SDS011;38827;53.024;6.596;2024-02-21T23:59:13;7.15;;;5.40;;
